Report METAR

 

LIML - Milano/Linate, Italy
Distance from station: NO 27km
Dati ricevuti: 15/12/2017 10:50
Mist, Parz. nuvoloso
Mist, Parz. nuvoloso
 Vento da OSO
Vento: OSO 15 km/h
Temperatura: 2°C
Temperatura Vento: -2°C
P.to Rugiada: 2°C
Umidità: 100%
Barometro: 1001 hPa
Summary: Mist
Nuvole: Parz. nuvoloso
Visibility: 2 km
Cloud details: Parz. nuvoloso 122 m
2017/12/15 09:50 LIML 150950Z 25008KT 210V270 1500 BR SCT004 02/02 Q1001 NOSIG
LIME - Bergamo/Orio Ser, Italy
Distance from station: NNE 43km
Dati ricevuti: 15/12/2017 10:50
Molto nuvoloso
Molto nuvoloso
 Vento da Variabile
Vento: Variabile 6 km/h
Temperatura: 4°C
P.to Rugiada: 2°C
Umidità: 87%
Barometro: 999 hPa
Nuvole: Molto nuvoloso
Visibility: 10 km
Cloud details: Parz. nuvoloso 1829 m
Molto nuvoloso 2743 m
2017/12/15 09:50 LIME 150950Z VRB03KT 9999 SCT060 BKN090 04/02 Q0999 NOSIG
 
LIMS - Piacenza, it-Afb, Italy
Distance from station: SSE 45km
Dati ricevuti: 15/12/2017 09:55
Mist, Coperto
Mist, Coperto
 Vento da NO
Vento: NO 19 km/h
Temperatura: 2°C
Temperatura Vento: -2°C
P.to Rugiada: 2°C
Umidità: 100%
Barometro: 999 hPa
Summary: Mist
Nuvole: Coperto
Visibility: 1 km
Cloud details: Coperto 91 m
2017/12/15 08:55 LIMS 150855Z 32010KT 1400 1200NE R30/P1500 R12//// BR OVC003 02/02 Q0999
LIPO - Brescia/Montichi, Italy
Distance from station: ENE 65km
Dati ricevuti: 15/12/2017 09:50
Parz. nuvoloso
Parz. nuvoloso
 Vento da NO
Vento: NO 11 km/h
Temperatura: 4°C
Temperatura Vento: 1°C
P.to Rugiada: 2°C
Umidità: 87%
Barometro: 1000 hPa
Nuvole: Parz. nuvoloso
Visibility: 10 km
Cloud details: Parz. nuvoloso 1524 m
2017/12/15 08:50 LIPO 150850Z 31006KT 9999 SCT050 04/02 Q1000